sensor_id;sensor_type;location;lat;lon;timestamp;temperature;humidity
32534;DHT22;18973;48.580;8.912;2023-06-10T00:00:40;19.90;83.90
32534;DHT22;18973;48.580;8.912;2023-06-10T00:03:09;20.00;84.00
32534;DHT22;18973;48.580;8.912;2023-06-10T00:05:35;19.60;85.30
32534;DHT22;18973;48.580;8.912;2023-06-10T00:08:01;19.30;86.00
32534;DHT22;18973;48.580;8.912;2023-06-10T00:10:33;19.20;87.10
32534;DHT22;18973;48.580;8.912;2023-06-10T00:13:01;19.40;87.10
32534;DHT22;18973;48.580;8.912;2023-06-10T00:15:27;19.20;86.80
32534;DHT22;18973;48.580;8.912;2023-06-10T00:17:53;19.00;86.40
32534;DHT22;18973;48.580;8.912;2023-06-10T00:20:20;19.00;86.90
32534;DHT22;18973;48.580;8.912;2023-06-10T00:22:47;19.10;86.30
32534;DHT22;18973;48.580;8.912;2023-06-10T00:25:13;19.30;86.40
32534;DHT22;18973;48.580;8.912;2023-06-10T00:27:39;19.20;87.40
32534;DHT22;18973;48.580;8.912;2023-06-10T00:30:06;19.00;88.20
32534;DHT22;18973;48.580;8.912;2023-06-10T00:32:33;18.80;88.80
32534;DHT22;18973;48.580;8.912;2023-06-10T00:35:03;18.90;88.80
32534;DHT22;18973;48.580;8.912;2023-06-10T00:37:28;18.90;88.80
32534;DHT22;18973;48.580;8.912;2023-06-10T00:39:55;18.90;89.10
32534;DHT22;18973;48.580;8.912;2023-06-10T00:42:20;18.90;89.30
32534;DHT22;18973;48.580;8.912;2023-06-10T00:44:48;19.00;89.00
32534;DHT22;18973;48.580;8.912;2023-06-10T00:47:13;18.70;89.80
32534;DHT22;18973;48.580;8.912;2023-06-10T00:49:40;18.70;90.30
32534;DHT22;18973;48.580;8.912;2023-06-10T00:52:07;18.60;90.30
32534;DHT22;18973;48.580;8.912;2023-06-10T00:54:33;18.60;90.20
32534;DHT22;18973;48.580;8.912;2023-06-10T00:57:01;18.70;90.20
32534;DHT22;18973;48.580;8.912;2023-06-10T00:59:28;18.70;90.30
32534;DHT22;18973;48.580;8.912;2023-06-10T01:01:55;18.70;90.60
32534;DHT22;18973;48.580;8.912;2023-06-10T01:04:21;18.70;90.80
32534;DHT22;18973;48.580;8.912;2023-06-10T01:15:02;18.20;92.60
32534;DHT22;18973;48.580;8.912;2023-06-10T01:17:30;18.10;92.80
32534;DHT22;18973;48.580;8.912;2023-06-10T01:19:57;18.00;93.00
32534;DHT22;18973;48.580;8.912;2023-06-10T01:22:27;17.70;93.80
32534;DHT22;18973;48.580;8.912;2023-06-10T01:25:02;17.70;93.60
32534;DHT22;18973;48.580;8.912;2023-06-10T01:27:33;17.80;93.80
32534;DHT22;18973;48.580;8.912;2023-06-10T01:30:11;18.00;93.70
32534;DHT22;18973;48.580;8.912;2023-06-10T01:32:45;18.00;93.60
32534;DHT22;18973;48.580;8.912;2023-06-10T01:35:12;18.10;94.00
32534;DHT22;18973;48.580;8.912;2023-06-10T01:37:44;17.90;94.00
32534;DHT22;18973;48.580;8.912;2023-06-10T01:40:12;17.60;94.60
32534;DHT22;18973;48.580;8.912;2023-06-10T01:42:38;17.50;95.10
32534;DHT22;18973;48.580;8.912;2023-06-10T01:45:04;17.60;95.00
32534;DHT22;18973;48.580;8.912;2023-06-10T01:47:30;17.50;95.50
32534;DHT22;18973;48.580;8.912;2023-06-10T01:49:56;17.50;95.50
32534;DHT22;18973;48.580;8.912;2023-06-10T01:52:21;17.50;95.50
32534;DHT22;18973;48.580;8.912;2023-06-10T01:54:47;17.50;95.50
32534;DHT22;18973;48.580;8.912;2023-06-10T01:57:13;17.50;95.70
32534;DHT22;18973;48.580;8.912;2023-06-10T01:59:38;17.40;96.10
32534;DHT22;18973;48.580;8.912;2023-06-10T02:02:05;17.30;96.50
32534;DHT22;18973;48.580;8.912;2023-06-10T02:04:31;17.20;97.00
32534;DHT22;18973;48.580;8.912;2023-06-10T02:06:56;17.20;97.10
32534;DHT22;18973;48.580;8.912;2023-06-10T02:09:22;17.20;97.10
32534;DHT22;18973;48.580;8.912;2023-06-10T02:11:48;17.10;97.20
32534;DHT22;18973;48.580;8.912;2023-06-10T02:14:14;17.20;97.20
32534;DHT22;18973;48.580;8.912;2023-06-10T02:16:40;17.30;97.40
32534;DHT22;18973;48.580;8.912;2023-06-10T02:19:06;17.30;97.60
32534;DHT22;18973;48.580;8.912;2023-06-10T02:21:32;17.30;97.60
32534;DHT22;18973;48.580;8.912;2023-06-10T02:24:00;17.40;97.80
32534;DHT22;18973;48.580;8.912;2023-06-10T02:26:26;17.40;97.90
32534;DHT22;18973;48.580;8.912;2023-06-10T02:28:52;17.50;98.00
32534;DHT22;18973;48.580;8.912;2023-06-10T02:31:17;17.50;98.30
32534;DHT22;18973;48.580;8.912;2023-06-10T02:33:44;17.50;98.30
32534;DHT22;18973;48.580;8.912;2023-06-10T02:36:10;17.50;98.40
32534;DHT22;18973;48.580;8.912;2023-06-10T02:38:39;17.40;98.60
32534;DHT22;18973;48.580;8.912;2023-06-10T02:41:08;17.40;98.80
32534;DHT22;18973;48.580;8.912;2023-06-10T02:43:34;17.30;98.70
32534;DHT22;18973;48.580;8.912;2023-06-10T02:45:59;17.20;99.00
32534;DHT22;18973;48.580;8.912;2023-06-10T02:48:26;17.10;99.30
32534;DHT22;18973;48.580;8.912;2023-06-10T02:50:52;17.20;99.30
32534;DHT22;18973;48.580;8.912;2023-06-10T02:53:18;17.20;99.50
32534;DHT22;18973;48.580;8.912;2023-06-10T02:55:44;17.00;99.80
32534;DHT22;18973;48.580;8.912;2023-06-10T02:58:09;17.00;99.90
32534;DHT22;18973;48.580;8.912;2023-06-10T03:00:35;16.90;99.90
32534;DHT22;18973;48.580;8.912;2023-06-10T03:03:02;16.90;99.90
32534;DHT22;18973;48.580;8.912;2023-06-10T03:05:31;16.80;99.90
32534;DHT22;18973;48.580;8.912;2023-06-10T03:07:56;16.90;99.90
32534;DHT22;18973;48.580;8.912;2023-06-10T03:10:22;17.00;99.90
32534;DHT22;18973;48.580;8.912;2023-06-10T03:12:48;17.10;99.90
32534;DHT22;18973;48.580;8.912;2023-06-10T03:15:14;17.20;99.90
32534;DHT22;18973;48.580;8.912;2023-06-10T03:17:41;17.30;99.90
32534;DHT22;18973;48.580;8.912;2023-06-10T03:20:07;17.30;99.90
32534;DHT22;18973;48.580;8.912;2023-06-10T03:22:36;17.10;99.90
32534;DHT22;18973;48.580;8.912;2023-06-10T03:25:04;17.00;99.90
32534;DHT22;18973;48.580;8.912;2023-06-10T03:27:29;17.10;99.90
32534;DHT22;18973;48.580;8.912;2023-06-10T03:29:55;17.10;99.90
32534;DHT22;18973;48.580;8.912;2023-06-10T03:32:21;17.10;99.90
32534;DHT22;18973;48.580;8.912;2023-06-10T03:34:47;17.10;99.90
32534;DHT22;18973;48.580;8.912;2023-06-10T03:37:13;17.20;99.90
32534;DHT22;18973;48.580;8.912;2023-06-10T03:39:39;17.20;99.90
32534;DHT22;18973;48.580;8.912;2023-06-10T03:42:05;17.10;99.90
32534;DHT22;18973;48.580;8.912;2023-06-10T03:44:31;17.30;99.90
32534;DHT22;18973;48.580;8.912;2023-06-10T03:46:56;17.00;99.90
32534;DHT22;18973;48.580;8.912;2023-06-10T03:49:23;16.90;99.90
32534;DHT22;18973;48.580;8.912;2023-06-10T03:51:51;17.00;99.90
32534;DHT22;18973;48.580;8.912;2023-06-10T03:54:16;16.90;99.90
32534;DHT22;18973;48.580;8.912;2023-06-10T03:56:42;16.80;99.90
32534;DHT22;18973;48.580;8.912;2023-06-10T03:59:08;16.90;99.90
32534;DHT22;18973;48.580;8.912;2023-06-10T04:01:33;16.80;99.90
32534;DHT22;18973;48.580;8.912;2023-06-10T04:04:00;16.90;99.90
32534;DHT22;18973;48.580;8.912;2023-06-10T04:06:26;17.00;99.90
32534;DHT22;18973;48.580;8.912;2023-06-10T04:08:54;16.80;99.90
32534;DHT22;18973;48.580;8.912;2023-06-10T04:11:23;16.90;99.90
32534;DHT22;18973;48.580;8.912;2023-06-10T04:13:49;16.80;99.90
32534;DHT22;18973;48.580;8.912;2023-06-10T04:16:15;16.70;99.90
32534;DHT22;18973;48.580;8.912;2023-06-10T04:18:41;16.60;99.90
32534;DHT22;18973;48.580;8.912;2023-06-10T04:21:07;16.30;99.90
32534;DHT22;18973;48.580;8.912;2023-06-10T04:23:35;16.00;99.90
32534;DHT22;18973;48.580;8.912;2023-06-10T04:26:02;15.80;99.90
32534;DHT22;18973;48.580;8.912;2023-06-10T04:28:27;15.80;99.90
32534;DHT22;18973;48.580;8.912;2023-06-10T04:30:53;16.30;99.90
32534;DHT22;18973;48.580;8.912;2023-06-10T04:33:19;16.80;99.90
32534;DHT22;18973;48.580;8.912;2023-06-10T04:35:44;17.10;99.90
32534;DHT22;18973;48.580;8.912;2023-06-10T04:38:13;17.40;99.90
32534;DHT22;18973;48.580;8.912;2023-06-10T04:40:39;17.60;99.90
32534;DHT22;18973;48.580;8.912;2023-06-10T04:43:05;17.40;99.90
32534;DHT22;18973;48.580;8.912;2023-06-10T04:45:31;17.20;99.90
32534;DHT22;18973;48.580;8.912;2023-06-10T04:47:57;17.50;99.90
32534;DHT22;18973;48.580;8.912;2023-06-10T04:50:23;17.60;99.90
32534;DHT22;18973;48.580;8.912;2023-06-10T04:52:49;17.50;99.90
32534;DHT22;18973;48.580;8.912;2023-06-10T04:55:15;17.30;99.90
32534;DHT22;18973;48.580;8.912;2023-06-10T04:57:41;17.50;99.90
32534;DHT22;18973;48.580;8.912;2023-06-10T05:00:07;17.70;99.90
32534;DHT22;18973;48.580;8.912;2023-06-10T05:02:34;17.70;99.90
32534;DHT22;18973;48.580;8.912;2023-06-10T05:05:00;18.00;99.90
32534;DHT22;18973;48.580;8.912;2023-06-10T05:07:26;17.80;99.90
32534;DHT22;18973;48.580;8.912;2023-06-10T05:09:51;17.80;99.90
32534;DHT22;18973;48.580;8.912;2023-06-10T05:12:17;18.10;99.90
32534;DHT22;18973;48.580;8.912;2023-06-10T05:14:43;18.30;99.90
32534;DHT22;18973;48.580;8.912;2023-06-10T05:17:10;18.30;99.90
32534;DHT22;18973;48.580;8.912;2023-06-10T05:19:35;18.30;99.90
32534;DHT22;18973;48.580;8.912;2023-06-10T05:22:03;18.30;99.90
32534;DHT22;18973;48.580;8.912;2023-06-10T05:24:28;18.20;99.90
32534;DHT22;18973;48.580;8.912;2023-06-10T05:26:54;18.30;99.90
32534;DHT22;18973;48.580;8.912;2023-06-10T05:29:20;18.40;99.90
32534;DHT22;18973;48.580;8.912;2023-06-10T05:31:46;18.10;99.90
32534;DHT22;18973;48.580;8.912;2023-06-10T05:34:11;18.00;99.90
32534;DHT22;18973;48.580;8.912;2023-06-10T05:36:37;18.00;99.90
32534;DHT22;18973;48.580;8.912;2023-06-10T05:39:03;18.20;99.90
32534;DHT22;18973;48.580;8.912;2023-06-10T05:41:29;18.50;99.90
32534;DHT22;18973;48.580;8.912;2023-06-10T05:43:55;18.60;99.90
32534;DHT22;18973;48.580;8.912;2023-06-10T05:46:20;18.70;99.90
32534;DHT22;18973;48.580;8.912;2023-06-10T05:48:46;18.80;99.90
32534;DHT22;18973;48.580;8.912;2023-06-10T05:51:12;18.80;99.90
32534;DHT22;18973;48.580;8.912;2023-06-10T05:53:37;18.80;99.90
32534;DHT22;18973;48.580;8.912;2023-06-10T05:56:04;18.70;99.90
32534;DHT22;18973;48.580;8.912;2023-06-10T05:58:29;18.70;99.90
32534;DHT22;18973;48.580;8.912;2023-06-10T06:00:55;18.80;99.90
32534;DHT22;18973;48.580;8.912;2023-06-10T06:03:21;18.80;99.90
32534;DHT22;18973;48.580;8.912;2023-06-10T06:05:47;18.90;99.90
32534;DHT22;18973;48.580;8.912;2023-06-10T06:08:13;18.70;99.90
32534;DHT22;18973;48.580;8.912;2023-06-10T06:10:45;18.80;99.90
32534;DHT22;18973;48.580;8.912;2023-06-10T06:13:10;19.00;99.90
32534;DHT22;18973;48.580;8.912;2023-06-10T06:15:36;19.00;99.90
32534;DHT22;18973;48.580;8.912;2023-06-10T06:18:02;19.10;99.90
32534;DHT22;18973;48.580;8.912;2023-06-10T06:20:27;19.10;99.90
32534;DHT22;18973;48.580;8.912;2023-06-10T06:22:54;19.20;99.90
32534;DHT22;18973;48.580;8.912;2023-06-10T06:25:20;19.30;99.90
32534;DHT22;18973;48.580;8.912;2023-06-10T06:27:45;19.40;99.90
32534;DHT22;18973;48.580;8.912;2023-06-10T06:30:11;19.50;99.90
32534;DHT22;18973;48.580;8.912;2023-06-10T06:32:37;19.60;99.90
32534;DHT22;18973;48.580;8.912;2023-06-10T06:35:03;19.70;99.90
32534;DHT22;18973;48.580;8.912;2023-06-10T06:37:31;19.90;99.90
32534;DHT22;18973;48.580;8.912;2023-06-10T06:39:57;20.00;99.90
32534;DHT22;18973;48.580;8.912;2023-06-10T06:42:23;20.10;99.90
32534;DHT22;18973;48.580;8.912;2023-06-10T06:44:49;20.20;99.90
32534;DHT22;18973;48.580;8.912;2023-06-10T06:47:15;20.40;99.90
32534;DHT22;18973;48.580;8.912;2023-06-10T06:49:43;20.50;99.90
32534;DHT22;18973;48.580;8.912;2023-06-10T06:52:08;20.70;99.90
32534;DHT22;18973;48.580;8.912;2023-06-10T06:54:34;20.80;99.90
32534;DHT22;18973;48.580;8.912;2023-06-10T06:57:00;21.00;99.90
32534;DHT22;18973;48.580;8.912;2023-06-10T06:59:26;21.10;99.80
32534;DHT22;18973;48.580;8.912;2023-06-10T07:01:51;21.30;99.80
32534;DHT22;18973;48.580;8.912;2023-06-10T07:04:19;21.50;99.60
32534;DHT22;18973;48.580;8.912;2023-06-10T07:06:47;21.70;98.80
32534;DHT22;18973;48.580;8.912;2023-06-10T07:09:13;21.80;98.40
32534;DHT22;18973;48.580;8.912;2023-06-10T07:11:39;21.90;98.20
32534;DHT22;18973;48.580;8.912;2023-06-10T07:14:04;22.10;98.40
32534;DHT22;18973;48.580;8.912;2023-06-10T07:16:30;22.30;97.50
32534;DHT22;18973;48.580;8.912;2023-06-10T07:18:56;22.30;97.30
32534;DHT22;18973;48.580;8.912;2023-06-10T07:21:22;22.40;97.80
32534;DHT22;18973;48.580;8.912;2023-06-10T07:23:48;22.50;97.20
32534;DHT22;18973;48.580;8.912;2023-06-10T07:26:14;22.50;97.10
32534;DHT22;18973;48.580;8.912;2023-06-10T07:28:43;22.70;97.30
32534;DHT22;18973;48.580;8.912;2023-06-10T07:31:09;22.90;96.30
32534;DHT22;18973;48.580;8.912;2023-06-10T07:33:36;23.00;96.00
32534;DHT22;18973;48.580;8.912;2023-06-10T07:36:04;23.10;96.50
32534;DHT22;18973;48.580;8.912;2023-06-10T07:38:30;23.20;96.00
32534;DHT22;18973;48.580;8.912;2023-06-10T07:40:56;23.40;96.40
32534;DHT22;18973;48.580;8.912;2023-06-10T07:43:23;23.60;95.40
32534;DHT22;18973;48.580;8.912;2023-06-10T07:45:49;23.80;95.50
32534;DHT22;18973;48.580;8.912;2023-06-10T07:48:15;23.90;94.90
32534;DHT22;18973;48.580;8.912;2023-06-10T07:50:40;24.00;94.00
32534;DHT22;18973;48.580;8.912;2023-06-10T07:53:06;24.10;93.80
32534;DHT22;18973;48.580;8.912;2023-06-10T07:55:32;24.20;94.30
32534;DHT22;18973;48.580;8.912;2023-06-10T07:57:57;24.50;93.80
32534;DHT22;18973;48.580;8.912;2023-06-10T08:00:23;24.60;93.40
32534;DHT22;18973;48.580;8.912;2023-06-10T08:02:49;24.70;93.70
32534;DHT22;18973;48.580;8.912;2023-06-10T08:05:15;24.70;92.60
32534;DHT22;18973;48.580;8.912;2023-06-10T08:07:42;24.90;92.40
32534;DHT22;18973;48.580;8.912;2023-06-10T08:10:08;24.80;91.70
32534;DHT22;18973;48.580;8.912;2023-06-10T08:12:34;25.10;91.60
32534;DHT22;18973;48.580;8.912;2023-06-10T08:15:00;25.30;90.60
32534;DHT22;18973;48.580;8.912;2023-06-10T08:17:26;25.30;92.10
32534;DHT22;18973;48.580;8.912;2023-06-10T08:19:52;25.60;90.10
32534;DHT22;18973;48.580;8.912;2023-06-10T08:22:17;25.60;89.60
32534;DHT22;18973;48.580;8.912;2023-06-10T08:24:43;25.40;89.90
32534;DHT22;18973;48.580;8.912;2023-06-10T08:27:09;25.60;88.80
32534;DHT22;18973;48.580;8.912;2023-06-10T08:29:35;25.30;88.40
32534;DHT22;18973;48.580;8.912;2023-06-10T08:32:01;25.10;87.20
32534;DHT22;18973;48.580;8.912;2023-06-10T08:34:27;25.20;89.40
32534;DHT22;18973;48.580;8.912;2023-06-10T08:36:53;25.30;89.00
32534;DHT22;18973;48.580;8.912;2023-06-10T08:39:21;25.40;90.30
32534;DHT22;18973;48.580;8.912;2023-06-10T08:45:17;25.90;86.60
32534;DHT22;18973;48.580;8.912;2023-06-10T08:47:46;25.80;86.60
32534;DHT22;18973;48.580;8.912;2023-06-10T08:50:16;25.80;86.90
32534;DHT22;18973;48.580;8.912;2023-06-10T08:52:44;26.00;85.70
32534;DHT22;18973;48.580;8.912;2023-06-10T08:55:13;26.00;85.90
32534;DHT22;18973;48.580;8.912;2023-06-10T08:57:41;26.10;83.20
32534;DHT22;18973;48.580;8.912;2023-06-10T09:00:08;26.00;84.20
32534;DHT22;18973;48.580;8.912;2023-06-10T09:02:34;26.30;84.00
32534;DHT22;18973;48.580;8.912;2023-06-10T09:05:03;26.60;84.40
32534;DHT22;18973;48.580;8.912;2023-06-10T09:07:30;27.00;82.40
32534;DHT22;18973;48.580;8.912;2023-06-10T09:10:02;27.00;83.10
32534;DHT22;18973;48.580;8.912;2023-06-10T09:12:33;26.90;81.80
32534;DHT22;18973;48.580;8.912;2023-06-10T09:15:00;26.60;82.70
32534;DHT22;18973;48.580;8.912;2023-06-10T09:17:27;26.60;82.20
32534;DHT22;18973;48.580;8.912;2023-06-10T09:19:53;26.60;81.70
32534;DHT22;18973;48.580;8.912;2023-06-10T09:22:22;26.40;82.20
32534;DHT22;18973;48.580;8.912;2023-06-10T09:24:48;26.50;81.70
32534;DHT22;18973;48.580;8.912;2023-06-10T09:27:13;26.50;81.20
32534;DHT22;18973;48.580;8.912;2023-06-10T09:29:53;26.30;81.00
32534;DHT22;18973;48.580;8.912;2023-06-10T09:32:20;26.50;80.50
32534;DHT22;18973;48.580;8.912;2023-06-10T09:34:46;26.40;81.80
32534;DHT22;18973;48.580;8.912;2023-06-10T09:37:12;26.30;82.80
32534;DHT22;18973;48.580;8.912;2023-06-10T09:39:42;26.30;82.40
32534;DHT22;18973;48.580;8.912;2023-06-10T09:42:17;26.50;81.80
32534;DHT22;18973;48.580;8.912;2023-06-10T09:44:52;26.70;81.10
32534;DHT22;18973;48.580;8.912;2023-06-10T09:47:22;26.90;79.90
32534;DHT22;18973;48.580;8.912;2023-06-10T09:49:49;27.10;78.70
32534;DHT22;18973;48.580;8.912;2023-06-10T09:52:24;27.30;80.60
32534;DHT22;18973;48.580;8.912;2023-06-10T09:54:54;27.50;78.70
32534;DHT22;18973;48.580;8.912;2023-06-10T09:57:25;27.40;79.50
32534;DHT22;18973;48.580;8.912;2023-06-10T09:59:53;27.20;76.70
32534;DHT22;18973;48.580;8.912;2023-06-10T10:02:20;27.00;79.20
32534;DHT22;18973;48.580;8.912;2023-06-10T10:04:45;26.80;82.00
32534;DHT22;18973;48.580;8.912;2023-06-10T10:07:12;27.20;81.30
32534;DHT22;18973;48.580;8.912;2023-06-10T10:09:38;27.20;79.30
32534;DHT22;18973;48.580;8.912;2023-06-10T10:12:15;27.30;78.90
32534;DHT22;18973;48.580;8.912;2023-06-10T10:14:46;27.20;81.00
32534;DHT22;18973;48.580;8.912;2023-06-10T10:17:14;27.50;79.80
32534;DHT22;18973;48.580;8.912;2023-06-10T10:19:46;27.70;78.90
32534;DHT22;18973;48.580;8.912;2023-06-10T10:22:25;28.00;76.90
32534;DHT22;18973;48.580;8.912;2023-06-10T10:24:55;28.00;77.20
32534;DHT22;18973;48.580;8.912;2023-06-10T10:27:27;27.40;76.70
32534;DHT22;18973;48.580;8.912;2023-06-10T10:29:54;27.10;79.60
32534;DHT22;18973;48.580;8.912;2023-06-10T10:32:32;27.50;79.40
32534;DHT22;18973;48.580;8.912;2023-06-10T10:35:12;27.70;77.60
32534;DHT22;18973;48.580;8.912;2023-06-10T10:37:42;28.10;76.80
32534;DHT22;18973;48.580;8.912;2023-06-10T10:40:08;28.20;76.40
32534;DHT22;18973;48.580;8.912;2023-06-10T10:42:35;28.00;75.20
32534;DHT22;18973;48.580;8.912;2023-06-10T10:45:02;26.80;76.40
32534;DHT22;18973;48.580;8.912;2023-06-10T10:47:30;27.10;76.00
32534;DHT22;18973;48.580;8.912;2023-06-10T10:49:56;27.30;76.70
32534;DHT22;18973;48.580;8.912;2023-06-10T10:52:26;27.60;76.80
32534;DHT22;18973;48.580;8.912;2023-06-10T10:54:53;28.00;75.60
32534;DHT22;18973;48.580;8.912;2023-06-10T10:57:21;28.00;74.90
32534;DHT22;18973;48.580;8.912;2023-06-10T10:59:59;28.10;74.80
32534;DHT22;18973;48.580;8.912;2023-06-10T11:02:35;28.40;73.60
32534;DHT22;18973;48.580;8.912;2023-06-10T11:05:04;28.20;73.50
32534;DHT22;18973;48.580;8.912;2023-06-10T11:07:32;27.90;73.50
32534;DHT22;18973;48.580;8.912;2023-06-10T11:10:06;28.00;73.50
32534;DHT22;18973;48.580;8.912;2023-06-10T11:12:49;27.30;72.40
32534;DHT22;18973;48.580;8.912;2023-06-10T11:15:25;27.10;74.30
32534;DHT22;18973;48.580;8.912;2023-06-10T11:18:07;27.40;72.20
32534;DHT22;18973;48.580;8.912;2023-06-10T11:20:50;27.60;73.30
32534;DHT22;18973;48.580;8.912;2023-06-10T11:26:29;27.80;72.50
32534;DHT22;18973;48.580;8.912;2023-06-10T11:34:05;28.00;71.20
32534;DHT22;18973;48.580;8.912;2023-06-10T11:36:33;28.30;70.50
32534;DHT22;18973;48.580;8.912;2023-06-10T11:39:01;28.20;69.30
32534;DHT22;18973;48.580;8.912;2023-06-10T11:41:29;27.90;70.60
32534;DHT22;18973;48.580;8.912;2023-06-10T11:43:55;28.00;70.10
32534;DHT22;18973;48.580;8.912;2023-06-10T11:46:24;27.90;71.40
32534;DHT22;18973;48.580;8.912;2023-06-10T11:48:58;27.40;72.50
32534;DHT22;18973;48.580;8.912;2023-06-10T11:51:29;27.70;72.20
32534;DHT22;18973;48.580;8.912;2023-06-10T11:53:55;28.10;73.10
32534;DHT22;18973;48.580;8.912;2023-06-10T11:56:25;28.60;72.00
32534;DHT22;18973;48.580;8.912;2023-06-10T11:58:53;28.60;71.10
32534;DHT22;18973;48.580;8.912;2023-06-10T12:01:24;28.60;70.50
32534;DHT22;18973;48.580;8.912;2023-06-10T12:04:04;28.60;69.90
32534;DHT22;18973;48.580;8.912;2023-06-10T12:06:51;28.20;69.30
32534;DHT22;18973;48.580;8.912;2023-06-10T12:09:26;28.20;70.60
32534;DHT22;18973;48.580;8.912;2023-06-10T12:11:58;28.00;71.30
32534;DHT22;18973;48.580;8.912;2023-06-10T12:14:56;28.30;70.30
32534;DHT22;18973;48.580;8.912;2023-06-10T12:19:56;28.30;68.30
32534;DHT22;18973;48.580;8.912;2023-06-10T12:22:23;28.30;69.80
32534;DHT22;18973;48.580;8.912;2023-06-10T12:25:04;28.30;69.60
32534;DHT22;18973;48.580;8.912;2023-06-10T12:27:30;28.30;68.90
32534;DHT22;18973;48.580;8.912;2023-06-10T12:29:58;28.40;68.60
32534;DHT22;18973;48.580;8.912;2023-06-10T12:32:46;28.00;67.80
32534;DHT22;18973;48.580;8.912;2023-06-10T12:35:15;28.30;67.00
32534;DHT22;18973;48.580;8.912;2023-06-10T12:37:42;28.20;67.60
32534;DHT22;18973;48.580;8.912;2023-06-10T12:40:08;27.90;66.80
32534;DHT22;18973;48.580;8.912;2023-06-10T12:42:35;28.00;67.10
32534;DHT22;18973;48.580;8.912;2023-06-10T12:45:03;28.40;69.50
32534;DHT22;18973;48.580;8.912;2023-06-10T12:47:33;28.70;68.40
32534;DHT22;18973;48.580;8.912;2023-06-10T12:50:05;28.90;66.30
32534;DHT22;18973;48.580;8.912;2023-06-10T12:52:31;28.80;66.40
32534;DHT22;18973;48.580;8.912;2023-06-10T12:54:58;29.00;66.20
32534;DHT22;18973;48.580;8.912;2023-06-10T12:57:24;29.20;63.90
32534;DHT22;18973;48.580;8.912;2023-06-10T12:59:50;29.00;64.30
32534;DHT22;18973;48.580;8.912;2023-06-10T13:02:18;28.80;63.80
32534;DHT22;18973;48.580;8.912;2023-06-10T13:04:45;28.60;63.50
32534;DHT22;18973;48.580;8.912;2023-06-10T13:07:12;28.70;65.50
32534;DHT22;18973;48.580;8.912;2023-06-10T13:09:38;28.90;65.00
32534;DHT22;18973;48.580;8.912;2023-06-10T13:12:04;29.20;64.00
32534;DHT22;18973;48.580;8.912;2023-06-10T13:14:31;29.10;62.70
32534;DHT22;18973;48.580;8.912;2023-06-10T13:16:56;28.90;62.90
32534;DHT22;18973;48.580;8.912;2023-06-10T13:19:22;28.80;65.30
32534;DHT22;18973;48.580;8.912;2023-06-10T13:21:48;29.00;63.60
32534;DHT22;18973;48.580;8.912;2023-06-10T13:24:14;28.60;62.60
32534;DHT22;18973;48.580;8.912;2023-06-10T13:26:39;28.70;65.50
32534;DHT22;18973;48.580;8.912;2023-06-10T13:29:05;29.10;65.90
32534;DHT22;18973;48.580;8.912;2023-06-10T13:31:31;29.30;63.90
32534;DHT22;18973;48.580;8.912;2023-06-10T13:33:57;29.00;63.90
32534;DHT22;18973;48.580;8.912;2023-06-10T13:36:24;28.60;64.70
32534;DHT22;18973;48.580;8.912;2023-06-10T13:38:49;28.10;64.70
32534;DHT22;18973;48.580;8.912;2023-06-10T13:41:15;27.70;65.40
32534;DHT22;18973;48.580;8.912;2023-06-10T13:43:41;27.60;67.50
32534;DHT22;18973;48.580;8.912;2023-06-10T13:46:07;27.50;66.60
32534;DHT22;18973;48.580;8.912;2023-06-10T13:48:32;27.50;67.10
32534;DHT22;18973;48.580;8.912;2023-06-10T13:50:59;27.60;67.80
32534;DHT22;18973;48.580;8.912;2023-06-10T13:53:25;27.90;67.70
32534;DHT22;18973;48.580;8.912;2023-06-10T13:55:51;28.10;66.60
32534;DHT22;18973;48.580;8.912;2023-06-10T13:58:16;28.20;66.80
32534;DHT22;18973;48.580;8.912;2023-06-10T14:00:42;28.10;65.60
32534;DHT22;18973;48.580;8.912;2023-06-10T14:03:08;27.80;65.70
32534;DHT22;18973;48.580;8.912;2023-06-10T14:05:34;27.60;65.60
32534;DHT22;18973;48.580;8.912;2023-06-10T14:08:00;27.40;66.20
32534;DHT22;18973;48.580;8.912;2023-06-10T14:10:26;27.20;66.60
32534;DHT22;18973;48.580;8.912;2023-06-10T14:12:51;27.00;67.00
32534;DHT22;18973;48.580;8.912;2023-06-10T14:15:17;27.00;67.20
32534;DHT22;18973;48.580;8.912;2023-06-10T14:17:43;27.00;68.40
32534;DHT22;18973;48.580;8.912;2023-06-10T14:20:09;27.20;68.80
32534;DHT22;18973;48.580;8.912;2023-06-10T14:22:34;27.60;69.10
32534;DHT22;18973;48.580;8.912;2023-06-10T14:25:00;28.00;68.10
32534;DHT22;18973;48.580;8.912;2023-06-10T14:27:26;28.20;65.10
32534;DHT22;18973;48.580;8.912;2023-06-10T14:29:51;28.50;65.50
32534;DHT22;18973;48.580;8.912;2023-06-10T14:32:17;28.60;65.10
32534;DHT22;18973;48.580;8.912;2023-06-10T14:34:43;28.40;65.30
32534;DHT22;18973;48.580;8.912;2023-06-10T14:37:10;28.60;65.50
32534;DHT22;18973;48.580;8.912;2023-06-10T14:39:36;28.90;66.70
32534;DHT22;18973;48.580;8.912;2023-06-10T14:42:01;28.60;65.40
32534;DHT22;18973;48.580;8.912;2023-06-10T14:44:27;28.40;66.00
32534;DHT22;18973;48.580;8.912;2023-06-10T14:46:53;28.40;66.10
32534;DHT22;18973;48.580;8.912;2023-06-10T14:49:19;28.20;65.30
32534;DHT22;18973;48.580;8.912;2023-06-10T14:51:44;28.00;65.70
32534;DHT22;18973;48.580;8.912;2023-06-10T14:54:10;27.80;65.70
32534;DHT22;18973;48.580;8.912;2023-06-10T14:56:36;27.60;66.20
32534;DHT22;18973;48.580;8.912;2023-06-10T14:59:02;27.40;66.60
32534;DHT22;18973;48.580;8.912;2023-06-10T15:01:28;27.40;67.40
32534;DHT22;18973;48.580;8.912;2023-06-10T15:03:53;27.50;67.80
32534;DHT22;18973;48.580;8.912;2023-06-10T15:06:19;27.70;67.30
32534;DHT22;18973;48.580;8.912;2023-06-10T15:08:48;27.60;67.00
32534;DHT22;18973;48.580;8.912;2023-06-10T15:11:15;27.90;68.70
32534;DHT22;18973;48.580;8.912;2023-06-10T15:13:40;28.00;67.50
32534;DHT22;18973;48.580;8.912;2023-06-10T15:16:06;28.00;68.00
32534;DHT22;18973;48.580;8.912;2023-06-10T15:18:32;28.10;68.20
32534;DHT22;18973;48.580;8.912;2023-06-10T15:20:58;28.30;67.80
32534;DHT22;18973;48.580;8.912;2023-06-10T15:23:24;28.30;66.30
32534;DHT22;18973;48.580;8.912;2023-06-10T15:25:50;28.40;66.80
32534;DHT22;18973;48.580;8.912;2023-06-10T15:28:15;28.30;67.00
32534;DHT22;18973;48.580;8.912;2023-06-10T15:30:41;28.40;68.20
32534;DHT22;18973;48.580;8.912;2023-06-10T15:33:07;28.30;65.70
32534;DHT22;18973;48.580;8.912;2023-06-10T15:35:33;28.20;66.00
32534;DHT22;18973;48.580;8.912;2023-06-10T15:37:59;28.30;65.90
32534;DHT22;18973;48.580;8.912;2023-06-10T15:40:25;28.20;65.70
32534;DHT22;18973;48.580;8.912;2023-06-10T15:42:51;28.10;66.00
32534;DHT22;18973;48.580;8.912;2023-06-10T15:45:17;28.10;66.20
32534;DHT22;18973;48.580;8.912;2023-06-10T15:47:42;28.10;66.40
32534;DHT22;18973;48.580;8.912;2023-06-10T15:50:09;28.10;66.20
32534;DHT22;18973;48.580;8.912;2023-06-10T15:52:35;27.90;66.20